sensor_id;sensor_type;location;lat;lon;timestamp;P1;durP1;ratioP1;P2;durP2;ratioP2
7211;SDS011;3647;48.792;9.802;2023-03-17T06:33:30;12.87;;;9.20;;
7211;SDS011;3647;48.792;9.802;2023-03-17T06:35:58;10.57;;;8.13;;
7211;SDS011;3647;48.792;9.802;2023-03-17T06:38:25;11.27;;;8.63;;
7211;SDS011;3647;48.792;9.802;2023-03-17T06:40:52;9.77;;;8.03;;
7211;SDS011;3647;48.792;9.802;2023-03-17T06:43:19;11.83;;;8.70;;
7211;SDS011;3647;48.792;9.802;2023-03-17T06:45:48;12.17;;;9.33;;
7211;SDS011;3647;48.792;9.802;2023-03-17T06:48:16;14.73;;;9.87;;
7211;SDS011;3647;48.792;9.802;2023-03-17T06:50:45;14.37;;;9.90;;
7211;SDS011;3647;48.792;9.802;2023-03-17T06:53:13;17.30;;;10.10;;
7211;SDS011;3647;48.792;9.802;2023-03-17T06:55:40;12.20;;;8.83;;
7211;SDS011;3647;48.792;9.802;2023-03-17T06:58:07;11.23;;;7.90;;
7211;SDS011;3647;48.792;9.802;2023-03-17T07:00:37;8.57;;;6.90;;
7211;SDS011;3647;48.792;9.802;2023-03-17T07:03:04;8.27;;;7.47;;
7211;SDS011;3647;48.792;9.802;2023-03-17T07:05:31;8.83;;;7.60;;
7211;SDS011;3647;48.792;9.802;2023-03-17T07:07:59;8.03;;;6.77;;
7211;SDS011;3647;48.792;9.802;2023-03-17T07:10:26;8.70;;;6.60;;
7211;SDS011;3647;48.792;9.802;2023-03-17T07:12:53;7.03;;;5.97;;
7211;SDS011;3647;48.792;9.802;2023-03-17T07:15:19;9.40;;;7.00;;
7211;SDS011;3647;48.792;9.802;2023-03-17T07:17:46;9.27;;;6.50;;
7211;SDS011;3647;48.792;9.802;2023-03-17T07:20:13;7.33;;;6.30;;
7211;SDS011;3647;48.792;9.802;2023-03-17T07:22:40;7.97;;;6.33;;
7211;SDS011;3647;48.792;9.802;2023-03-17T07:25:09;13.53;;;6.77;;
7211;SDS011;3647;48.792;9.802;2023-03-17T07:27:35;6.80;;;5.90;;
7211;SDS011;3647;48.792;9.802;2023-03-17T07:30:03;13.63;;;9.93;;
7211;SDS011;3647;48.792;9.802;2023-03-17T07:32:31;13.53;;;8.77;;
7211;SDS011;3647;48.792;9.802;2023-03-17T07:34:59;8.77;;;6.10;;
7211;SDS011;3647;48.792;9.802;2023-03-17T07:37:26;9.77;;;6.60;;
7211;SDS011;3647;48.792;9.802;2023-03-17T07:39:53;8.43;;;6.83;;
7211;SDS011;3647;48.792;9.802;2023-03-17T07:42:21;6.73;;;5.60;;
7211;SDS011;3647;48.792;9.802;2023-03-17T07:44:48;6.23;;;5.63;;
7211;SDS011;3647;48.792;9.802;2023-03-17T07:47:15;7.60;;;6.27;;
7211;SDS011;3647;48.792;9.802;2023-03-17T07:49:42;7.00;;;6.30;;
7211;SDS011;3647;48.792;9.802;2023-03-17T07:52:09;10.60;;;5.90;;
7211;SDS011;3647;48.792;9.802;2023-03-17T07:54:36;9.80;;;5.70;;
7211;SDS011;3647;48.792;9.802;2023-03-17T07:57:03;7.53;;;6.47;;
7211;SDS011;3647;48.792;9.802;2023-03-17T07:59:31;7.97;;;5.70;;
7211;SDS011;3647;48.792;9.802;2023-03-17T08:01:58;9.07;;;5.80;;
7211;SDS011;3647;48.792;9.802;2023-03-17T08:04:25;7.33;;;5.50;;
7211;SDS011;3647;48.792;9.802;2023-03-17T08:06:52;7.33;;;5.60;;
7211;SDS011;3647;48.792;9.802;2023-03-17T08:09:19;7.10;;;5.73;;
7211;SDS011;3647;48.792;9.802;2023-03-17T08:11:47;8.30;;;6.10;;
7211;SDS011;3647;48.792;9.802;2023-03-17T08:14:13;7.77;;;6.07;;
7211;SDS011;3647;48.792;9.802;2023-03-17T08:16:42;6.40;;;5.73;;
7211;SDS011;3647;48.792;9.802;2023-03-17T08:19:09;8.83;;;5.67;;
7211;SDS011;3647;48.792;9.802;2023-03-17T08:21:36;5.90;;;5.27;;
7211;SDS011;3647;48.792;9.802;2023-03-17T08:24:03;9.07;;;5.50;;
7211;SDS011;3647;48.792;9.802;2023-03-17T08:26:30;6.77;;;5.23;;
7211;SDS011;3647;48.792;9.802;2023-03-17T08:28:57;7.53;;;5.40;;
7211;SDS011;3647;48.792;9.802;2023-03-17T08:31:25;7.60;;;5.80;;
7211;SDS011;3647;48.792;9.802;2023-03-17T08:33:53;6.73;;;5.20;;
7211;SDS011;3647;48.792;9.802;2023-03-17T08:36:21;7.33;;;5.30;;
7211;SDS011;3647;48.792;9.802;2023-03-17T08:38:48;8.27;;;5.47;;
7211;SDS011;3647;48.792;9.802;2023-03-17T08:41:16;7.60;;;5.20;;
7211;SDS011;3647;48.792;9.802;2023-03-17T08:43:44;7.07;;;5.60;;
7211;SDS011;3647;48.792;9.802;2023-03-17T08:46:13;5.83;;;5.23;;
7211;SDS011;3647;48.792;9.802;2023-03-17T08:48:42;9.10;;;5.90;;
7211;SDS011;3647;48.792;9.802;2023-03-17T08:51:12;8.07;;;5.57;;
7211;SDS011;3647;48.792;9.802;2023-03-17T08:53:39;7.97;;;5.67;;
7211;SDS011;3647;48.792;9.802;2023-03-17T08:56:07;5.90;;;5.30;;
7211;SDS011;3647;48.792;9.802;2023-03-17T08:58:35;10.67;;;5.83;;
7211;SDS011;3647;48.792;9.802;2023-03-17T09:01:04;6.30;;;5.30;;
7211;SDS011;3647;48.792;9.802;2023-03-17T09:03:31;7.53;;;5.60;;
7211;SDS011;3647;48.792;9.802;2023-03-17T09:05:58;7.07;;;4.70;;
7211;SDS011;3647;48.792;9.802;2023-03-17T09:08:30;6.30;;;5.60;;
7211;SDS011;3647;48.792;9.802;2023-03-17T09:10:57;6.13;;;5.07;;
7211;SDS011;3647;48.792;9.802;2023-03-17T09:13:24;6.00;;;5.17;;
7211;SDS011;3647;48.792;9.802;2023-03-17T09:15:51;6.87;;;4.33;;
7211;SDS011;3647;48.792;9.802;2023-03-17T09:18:18;7.43;;;4.90;;
7211;SDS011;3647;48.792;9.802;2023-03-17T09:20:45;4.70;;;4.27;;
7211;SDS011;3647;48.792;9.802;2023-03-17T09:23:12;6.40;;;4.03;;
7211;SDS011;3647;48.792;9.802;2023-03-17T09:25:41;4.60;;;3.57;;
7211;SDS011;3647;48.792;9.802;2023-03-17T09:28:09;5.43;;;3.90;;
7211;SDS011;3647;48.792;9.802;2023-03-17T09:30:36;7.23;;;3.80;;
7211;SDS011;3647;48.792;9.802;2023-03-17T09:33:06;3.63;;;3.33;;
7211;SDS011;3647;48.792;9.802;2023-03-17T09:35:34;4.73;;;3.43;;
7211;SDS011;3647;48.792;9.802;2023-03-17T09:38:01;5.70;;;3.43;;
7211;SDS011;3647;48.792;9.802;2023-03-17T09:40:29;7.83;;;3.53;;
7211;SDS011;3647;48.792;9.802;2023-03-17T09:43:02;5.57;;;3.00;;
7211;SDS011;3647;48.792;9.802;2023-03-17T09:45:37;4.83;;;3.37;;
7211;SDS011;3647;48.792;9.802;2023-03-17T09:51:01;2.90;;;2.60;;
7211;SDS011;3647;48.792;9.802;2023-03-17T09:53:31;3.63;;;2.90;;
7211;SDS011;3647;48.792;9.802;2023-03-17T09:56:03;3.00;;;2.70;;
7211;SDS011;3647;48.792;9.802;2023-03-17T09:58:35;3.33;;;2.43;;
7211;SDS011;3647;48.792;9.802;2023-03-17T10:01:04;4.07;;;2.60;;
7211;SDS011;3647;48.792;9.802;2023-03-17T10:03:33;4.78;;;2.90;;
7211;SDS011;3647;48.792;9.802;2023-03-17T10:06:12;2.83;;;2.58;;
7211;SDS011;3647;48.792;9.802;2023-03-17T10:08:47;3.45;;;2.35;;
7211;SDS011;3647;48.792;9.802;2023-03-17T10:11:22;4.28;;;2.40;;
7211;SDS011;3647;48.792;9.802;2023-03-17T10:14:00;5.45;;;2.70;;
7211;SDS011;3647;48.792;9.802;2023-03-17T10:16:30;4.28;;;2.60;;
7211;SDS011;3647;48.792;9.802;2023-03-17T10:19:05;3.10;;;2.70;;
7211;SDS011;3647;48.792;9.802;2023-03-17T10:21:40;4.40;;;2.30;;
7211;SDS011;3647;48.792;9.802;2023-03-17T10:24:15;2.80;;;2.23;;
7211;SDS011;3647;48.792;9.802;2023-03-17T10:26:44;3.50;;;2.20;;
7211;SDS011;3647;48.792;9.802;2023-03-17T10:29:16;2.25;;;2.05;;
7211;SDS011;3647;48.792;9.802;2023-03-17T10:31:45;6.35;;;2.50;;
7211;SDS011;3647;48.792;9.802;2023-03-17T10:34:13;4.80;;;2.00;;
7211;SDS011;3647;48.792;9.802;2023-03-17T10:36:42;4.47;;;2.25;;
7211;SDS011;3647;48.792;9.802;2023-03-17T10:39:11;3.63;;;2.10;;
7211;SDS011;3647;48.792;9.802;2023-03-17T10:41:42;2.63;;;2.10;;
7211;SDS011;3647;48.792;9.802;2023-03-17T10:44:22;4.15;;;2.63;;
7211;SDS011;3647;48.792;9.802;2023-03-17T10:47:17;3.20;;;2.30;;
7211;SDS011;3647;48.792;9.802;2023-03-17T10:49:46;5.70;;;2.30;;
7211;SDS011;3647;48.792;9.802;2023-03-17T10:52:17;2.40;;;1.90;;
7211;SDS011;3647;48.792;9.802;2023-03-17T10:54:46;2.70;;;1.63;;
7211;SDS011;3647;48.792;9.802;2023-03-17T10:57:15;2.95;;;1.92;;
7211;SDS011;3647;48.792;9.802;2023-03-17T10:59:47;4.18;;;2.20;;
7211;SDS011;3647;48.792;9.802;2023-03-17T11:02:22;2.33;;;2.03;;
7211;SDS011;3647;48.792;9.802;2023-03-17T11:04:52;2.03;;;1.83;;
7211;SDS011;3647;48.792;9.802;2023-03-17T11:07:25;2.88;;;1.60;;
7211;SDS011;3647;48.792;9.802;2023-03-17T11:09:56;1.73;;;1.63;;
7211;SDS011;3647;48.792;9.802;2023-03-17T11:12:27;5.20;;;1.63;;
7211;SDS011;3647;48.792;9.802;2023-03-17T11:15:01;1.70;;;1.60;;
7211;SDS011;3647;48.792;9.802;2023-03-17T11:17:32;1.60;;;1.50;;
7211;SDS011;3647;48.792;9.802;2023-03-17T11:20:12;1.92;;;1.80;;
7211;SDS011;3647;48.792;9.802;2023-03-17T11:22:55;1.30;;;1.20;;
7211;SDS011;3647;48.792;9.802;2023-03-17T11:25:28;1.50;;;1.40;;
7211;SDS011;3647;48.792;9.802;2023-03-17T11:27:59;2.88;;;1.27;;
7211;SDS011;3647;48.792;9.802;2023-03-17T11:30:42;1.45;;;1.23;;
7211;SDS011;3647;48.792;9.802;2023-03-17T11:33:20;1.48;;;1.17;;
7211;SDS011;3647;48.792;9.802;2023-03-17T11:35:59;1.10;;;1.10;;
7211;SDS011;3647;48.792;9.802;2023-03-17T11:38:31;1.48;;;1.23;;
7211;SDS011;3647;48.792;9.802;2023-03-17T11:41:15;1.55;;;1.30;;
7211;SDS011;3647;48.792;9.802;2023-03-17T11:43:59;1.20;;;1.10;;
7211;SDS011;3647;48.792;9.802;2023-03-17T11:46:45;8.00;;;1.40;;
7211;SDS011;3647;48.792;9.802;2023-03-17T11:49:17;1.33;;;1.23;;
7211;SDS011;3647;48.792;9.802;2023-03-17T11:51:48;2.08;;;1.40;;
7211;SDS011;3647;48.792;9.802;2023-03-17T11:54:25;2.38;;;1.70;;
7211;SDS011;3647;48.792;9.802;2023-03-17T11:57:02;2.15;;;1.50;;
7211;SDS011;3647;48.792;9.802;2023-03-17T11:59:33;1.45;;;1.35;;
7211;SDS011;3647;48.792;9.802;2023-03-17T12:02:09;1.40;;;1.30;;
7211;SDS011;3647;48.792;9.802;2023-03-17T12:04:47;1.50;;;1.40;;
7211;SDS011;3647;48.792;9.802;2023-03-17T12:07:18;4.90;;;1.50;;
7211;SDS011;3647;48.792;9.802;2023-03-17T12:09:49;1.58;;;1.48;;
7211;SDS011;3647;48.792;9.802;2023-03-17T12:12:25;1.30;;;1.20;;
7211;SDS011;3647;48.792;9.802;2023-03-17T12:14:55;1.60;;;1.50;;
7211;SDS011;3647;48.792;9.802;2023-03-17T12:17:26;1.55;;;1.20;;
7211;SDS011;3647;48.792;9.802;2023-03-17T12:20:04;1.60;;;1.30;;
7211;SDS011;3647;48.792;9.802;2023-03-17T12:22:41;1.58;;;1.10;;
7211;SDS011;3647;48.792;9.802;2023-03-17T12:25:14;1.60;;;1.13;;
7211;SDS011;3647;48.792;9.802;2023-03-17T12:27:49;1.92;;;1.40;;
7211;SDS011;3647;48.792;9.802;2023-03-17T12:30:22;1.60;;;1.48;;
7211;SDS011;3647;48.792;9.802;2023-03-17T12:32:57;1.15;;;1.00;;
7211;SDS011;3647;48.792;9.802;2023-03-17T12:35:30;2.35;;;1.05;;
7211;SDS011;3647;48.792;9.802;2023-03-17T12:37:59;2.05;;;1.00;;
7211;SDS011;3647;48.792;9.802;2023-03-17T12:40:31;2.10;;;1.27;;
7211;SDS011;3647;48.792;9.802;2023-03-17T12:43:11;1.33;;;1.13;;
7211;SDS011;3647;48.792;9.802;2023-03-17T12:48:54;1.48;;;1.13;;
7211;SDS011;3647;48.792;9.802;2023-03-17T12:51:44;0.98;;;0.90;;
7211;SDS011;3647;48.792;9.802;2023-03-17T12:54:19;2.13;;;1.20;;
7211;SDS011;3647;48.792;9.802;2023-03-17T12:56:50;1.10;;;1.00;;
7211;SDS011;3647;48.792;9.802;2023-03-17T12:59:17;2.72;;;1.00;;
7211;SDS011;3647;48.792;9.802;2023-03-17T13:01:53;1.80;;;1.00;;
7211;SDS011;3647;48.792;9.802;2023-03-17T13:04:24;1.75;;;1.27;;
7211;SDS011;3647;48.792;9.802;2023-03-17T13:06:56;2.88;;;1.20;;
7211;SDS011;3647;48.792;9.802;2023-03-17T13:09:26;0.95;;;0.95;;
7211;SDS011;3647;48.792;9.802;2023-03-17T13:12:03;3.65;;;1.13;;
7211;SDS011;3647;48.792;9.802;2023-03-17T13:14:40;2.85;;;1.60;;
7211;SDS011;3647;48.792;9.802;2023-03-17T13:20:09;1.02;;;1.02;;
7211;SDS011;3647;48.792;9.802;2023-03-17T13:23:00;0.95;;;0.95;;
7211;SDS011;3647;48.792;9.802;2023-03-17T13:25:32;1.15;;;0.90;;
7211;SDS011;3647;48.792;9.802;2023-03-17T13:28:15;1.17;;;0.80;;
7211;SDS011;3647;48.792;9.802;2023-03-17T13:30:54;1.08;;;0.98;;
7211;SDS011;3647;48.792;9.802;2023-03-17T13:33:26;1.67;;;1.08;;
7211;SDS011;3647;48.792;9.802;2023-03-17T13:36:11;1.55;;;1.00;;
7211;SDS011;3647;48.792;9.802;2023-03-17T13:38:53;1.92;;;1.00;;
7211;SDS011;3647;48.792;9.802;2023-03-17T13:41:43;1.95;;;0.85;;
7211;SDS011;3647;48.792;9.802;2023-03-17T13:44:30;1.27;;;1.10;;
7211;SDS011;3647;48.792;9.802;2023-03-17T13:47:13;1.20;;;1.10;;
7211;SDS011;3647;48.792;9.802;2023-03-17T13:49:49;1.75;;;1.15;;
7211;SDS011;3647;48.792;9.802;2023-03-17T13:52:24;1.27;;;1.08;;
7211;SDS011;3647;48.792;9.802;2023-03-17T13:54:58;3.65;;;1.45;;
7211;SDS011;3647;48.792;9.802;2023-03-17T13:57:30;1.95;;;1.20;;
7211;SDS011;3647;48.792;9.802;2023-03-17T14:00:03;1.95;;;0.98;;
7211;SDS011;3647;48.792;9.802;2023-03-17T14:02:46;1.58;;;1.20;;
7211;SDS011;3647;48.792;9.802;2023-03-17T14:05:18;4.00;;;1.15;;
7211;SDS011;3647;48.792;9.802;2023-03-17T14:07:49;2.25;;;1.42;;
7211;SDS011;3647;48.792;9.802;2023-03-17T14:10:20;1.40;;;1.30;;
7211;SDS011;3647;48.792;9.802;2023-03-17T14:12:49;3.10;;;1.52;;
7211;SDS011;3647;48.792;9.802;2023-03-17T14:15:23;2.25;;;1.20;;
7211;SDS011;3647;48.792;9.802;2023-03-17T14:17:56;2.47;;;1.73;;
7211;SDS011;3647;48.792;9.802;2023-03-17T14:20:28;1.98;;;1.48;;
7211;SDS011;3647;48.792;9.802;2023-03-17T14:22:58;2.90;;;1.70;;
7211;SDS011;3647;48.792;9.802;2023-03-17T14:25:29;1.70;;;1.60;;
7211;SDS011;3647;48.792;9.802;2023-03-17T14:27:58;1.85;;;1.75;;
7211;SDS011;3647;48.792;9.802;2023-03-17T14:30:25;2.20;;;2.00;;
7211;SDS011;3647;48.792;9.802;2023-03-17T14:32:55;2.85;;;2.08;;
7211;SDS011;3647;48.792;9.802;2023-03-17T14:35:28;2.40;;;1.75;;
7211;SDS011;3647;48.792;9.802;2023-03-17T14:37:57;1.95;;;1.80;;
7211;SDS011;3647;48.792;9.802;2023-03-17T14:40:26;2.03;;;1.83;;
7211;SDS011;3647;48.792;9.802;2023-03-17T14:42:56;3.80;;;1.77;;
7211;SDS011;3647;48.792;9.802;2023-03-17T14:45:27;2.78;;;1.65;;
7211;SDS011;3647;48.792;9.802;2023-03-17T14:47:56;2.67;;;1.52;;
7211;SDS011;3647;48.792;9.802;2023-03-17T14:50:24;1.90;;;1.80;;
7211;SDS011;3647;48.792;9.802;2023-03-17T14:52:53;4.43;;;1.55;;
7211;SDS011;3647;48.792;9.802;2023-03-17T14:55:21;1.98;;;1.77;;
7211;SDS011;3647;48.792;9.802;2023-03-17T14:58:04;2.00;;;1.80;;
7211;SDS011;3647;48.792;9.802;2023-03-17T15:00:33;2.08;;;1.55;;
7211;SDS011;3647;48.792;9.802;2023-03-17T15:03:02;2.53;;;2.22;;
7211;SDS011;3647;48.792;9.802;2023-03-17T15:05:43;2.80;;;2.05;;
7211;SDS011;3647;48.792;9.802;2023-03-17T15:11:15;2.10;;;1.90;;
7211;SDS011;3647;48.792;9.802;2023-03-17T15:13:53;2.20;;;1.90;;
7211;SDS011;3647;48.792;9.802;2023-03-17T15:16:29;1.77;;;1.67;;
7211;SDS011;3647;48.792;9.802;2023-03-17T15:19:04;2.63;;;2.00;;
7211;SDS011;3647;48.792;9.802;2023-03-17T15:21:36;4.00;;;2.13;;
7211;SDS011;3647;48.792;9.802;2023-03-17T15:26:58;4.85;;;2.78;;
7211;SDS011;3647;48.792;9.802;2023-03-17T15:29:27;4.63;;;2.50;;
7211;SDS011;3647;48.792;9.802;2023-03-17T15:31:56;3.30;;;2.40;;
7211;SDS011;3647;48.792;9.802;2023-03-17T15:34:28;3.30;;;2.67;;
7211;SDS011;3647;48.792;9.802;2023-03-17T15:36:55;4.25;;;2.35;;
7211;SDS011;3647;48.792;9.802;2023-03-17T15:39:21;2.97;;;2.55;;
7211;SDS011;3647;48.792;9.802;2023-03-17T15:41:48;4.55;;;2.35;;
7211;SDS011;3647;48.792;9.802;2023-03-17T15:44:16;2.70;;;2.50;;
7211;SDS011;3647;48.792;9.802;2023-03-17T15:46:43;4.65;;;2.55;;
7211;SDS011;3647;48.792;9.802;2023-03-17T15:49:10;4.75;;;3.15;;
7211;SDS011;3647;48.792;9.802;2023-03-17T15:51:37;6.35;;;3.83;;
7211;SDS011;3647;48.792;9.802;2023-03-17T15:54:04;3.28;;;2.85;;
7211;SDS011;3647;48.792;9.802;2023-03-17T15:56:31;4.70;;;3.33;;
7211;SDS011;3647;48.792;9.802;2023-03-17T15:58:59;4.00;;;3.10;;
7211;SDS011;3647;48.792;9.802;2023-03-17T16:01:28;4.60;;;3.15;;
7211;SDS011;3647;48.792;9.802;2023-03-17T16:03:54;6.60;;;3.00;;
7211;SDS011;3647;48.792;9.802;2023-03-17T16:06:21;6.93;;;3.17;;
7211;SDS011;3647;48.792;9.802;2023-03-17T16:08:49;2.83;;;2.50;;
7211;SDS011;3647;48.792;9.802;2023-03-17T16:11:16;4.20;;;3.20;;
7211;SDS011;3647;48.792;9.802;2023-03-17T16:13:46;5.35;;;3.30;;
7211;SDS011;3647;48.792;9.802;2023-03-17T16:16:14;2.85;;;2.20;;
7211;SDS011;3647;48.792;9.802;2023-03-17T16:18:47;3.90;;;2.60;;
7211;SDS011;3647;48.792;9.802;2023-03-17T16:21:15;5.72;;;2.95;;
7211;SDS011;3647;48.792;9.802;2023-03-17T16:23:43;58.38;;;12.75;;
7211;SDS011;3647;48.792;9.802;2023-03-17T16:26:10;16.20;;;5.57;;
7211;SDS011;3647;48.792;9.802;2023-03-17T16:28:37;9.52;;;3.90;;
7211;SDS011;3647;48.792;9.802;2023-03-17T16:31:12;6.60;;;3.17;;
7211;SDS011;3647;48.792;9.802;2023-03-17T16:33:45;4.03;;;3.08;;
7211;SDS011;3647;48.792;9.802;2023-03-17T16:36:14;4.38;;;2.63;;
7211;SDS011;3647;48.792;9.802;2023-03-17T16:38:42;5.70;;;3.65;;
7211;SDS011;3647;48.792;9.802;2023-03-17T16:41:13;4.00;;;3.35;;
7211;SDS011;3647;48.792;9.802;2023-03-17T16:43:43;6.15;;;3.97;;
7211;SDS011;3647;48.792;9.802;2023-03-17T16:46:15;6.68;;;2.97;;
7211;SDS011;3647;48.792;9.802;2023-03-17T16:48:41;6.72;;;2.97;;
7211;SDS011;3647;48.792;9.802;2023-03-17T16:51:08;5.78;;;3.50;;
7211;SDS011;3647;48.792;9.802;2023-03-17T16:53:36;5.60;;;3.97;;
7211;SDS011;3647;48.792;9.802;2023-03-17T16:56:05;12.15;;;4.15;;
7211;SDS011;3647;48.792;9.802;2023-03-17T16:58:37;9.05;;;3.88;;
7211;SDS011;3647;48.792;9.802;2023-03-17T17:01:09;9.35;;;6.07;;
7211;SDS011;3647;48.792;9.802;2023-03-17T17:03:38;13.57;;;7.47;;
7211;SDS011;3647;48.792;9.802;2023-03-17T17:06:05;6.72;;;4.32;;
7211;SDS011;3647;48.792;9.802;2023-03-17T17:08:32;7.38;;;4.95;;
7211;SDS011;3647;48.792;9.802;2023-03-17T17:11:00;7.47;;;4.60;;
7211;SDS011;3647;48.792;9.802;2023-03-17T17:13:27;4.95;;;3.70;;
7211;SDS011;3647;48.792;9.802;2023-03-17T17:15:54;6.65;;;4.00;;
7211;SDS011;3647;48.792;9.802;2023-03-17T17:18:21;8.18;;;4.15;;
7211;SDS011;3647;48.792;9.802;2023-03-17T17:20:49;7.35;;;4.20;;
7211;SDS011;3647;48.792;9.802;2023-03-17T17:23:18;5.18;;;4.30;;
7211;SDS011;3647;48.792;9.802;2023-03-17T17:25:50;5.65;;;4.20;;
7211;SDS011;3647;48.792;9.802;2023-03-17T17:28:20;6.68;;;4.60;;
7211;SDS011;3647;48.792;9.802;2023-03-17T17:30:48;6.43;;;4.85;;
7211;SDS011;3647;48.792;9.802;2023-03-17T17:33:15;9.02;;;4.53;;
7211;SDS011;3647;48.792;9.802;2023-03-17T17:35:43;6.80;;;5.30;;
7211;SDS011;3647;48.792;9.802;2023-03-17T17:38:12;7.05;;;5.10;;
7211;SDS011;3647;48.792;9.802;2023-03-17T17:40:43;7.07;;;4.95;;
7211;SDS011;3647;48.792;9.802;2023-03-17T17:43:10;8.63;;;6.15;;
7211;SDS011;3647;48.792;9.802;2023-03-17T17:45:38;6.72;;;5.50;;
7211;SDS011;3647;48.792;9.802;2023-03-17T17:48:06;7.55;;;5.78;;
7211;SDS011;3647;48.792;9.802;2023-03-17T17:50:34;8.07;;;5.28;;
7211;SDS011;3647;48.792;9.802;2023-03-17T17:53:01;8.52;;;5.47;;
7211;SDS011;3647;48.792;9.802;2023-03-17T17:55:30;8.93;;;6.07;;
7211;SDS011;3647;48.792;9.802;2023-03-17T17:57:58;8.23;;;5.93;;
7211;SDS011;3647;48.792;9.802;2023-03-17T18:00:25;8.20;;;6.25;;
7211;SDS011;3647;48.792;9.802;2023-03-17T18:02:54;9.02;;;6.18;;
7211;SDS011;3647;48.792;9.802;2023-03-17T18:05:21;8.57;;;6.32;;
7211;SDS011;3647;48.792;9.802;2023-03-17T18:07:48;9.00;;;5.78;;
7211;SDS011;3647;48.792;9.802;2023-03-17T18:10:16;7.13;;;4.85;;
7211;SDS011;3647;48.792;9.802;2023-03-17T18:12:46;7.38;;;5.93;;
7211;SDS011;3647;48.792;9.802;2023-03-17T18:15:13;6.90;;;5.07;;
7211;SDS011;3647;48.792;9.802;2023-03-17T18:17:40;8.43;;;5.22;;
7211;SDS011;3647;48.792;9.802;2023-03-17T18:20:10;8.98;;;6.50;;
7211;SDS011;3647;48.792;9.802;2023-03-17T18:22:38;10.35;;;6.75;;
7211;SDS011;3647;48.792;9.802;2023-03-17T18:25:06;9.82;;;7.03;;
7211;SDS011;3647;48.792;9.802;2023-03-17T18:27:34;8.93;;;5.83;;
7211;SDS011;3647;48.792;9.802;2023-03-17T18:30:01;11.17;;;7.43;;
7211;SDS011;3647;48.792;9.802;2023-03-17T18:32:29;9.20;;;6.43;;
7211;SDS011;3647;48.792;9.802;2023-03-17T18:34:57;12.30;;;6.40;;
7211;SDS011;3647;48.792;9.802;2023-03-17T18:37:28;7.47;;;5.70;;
7211;SDS011;3647;48.792;9.802;2023-03-17T18:39:56;10.27;;;6.40;;
7211;SDS011;3647;48.792;9.802;2023-03-17T18:42:24;8.40;;;6.20;;
7211;SDS011;3647;48.792;9.802;2023-03-17T18:44:51;9.80;;;6.00;;
7211;SDS011;3647;48.792;9.802;2023-03-17T18:47:17;10.20;;;6.83;;
7211;SDS011;3647;48.792;9.802;2023-03-17T18:49:44;8.07;;;6.47;;
7211;SDS011;3647;48.792;9.802;2023-03-17T18:52:11;8.03;;;5.97;;
7211;SDS011;3647;48.792;9.802;2023-03-17T18:54:39;8.87;;;6.60;;
7211;SDS011;3647;48.792;9.802;2023-03-17T18:57:06;8.17;;;6.17;;
7211;SDS011;3647;48.792;9.802;2023-03-17T18:59:33;8.43;;;6.37;;
7211;SDS011;3647;48.792;9.802;2023-03-17T19:02:00;8.07;;;6.17;;
7211;SDS011;3647;48.792;9.802;2023-03-17T19:04:27;9.87;;;6.90;;
7211;SDS011;3647;48.792;9.802;2023-03-17T19:06:54;11.17;;;6.10;;
7211;SDS011;3647;48.792;9.802;2023-03-17T19:09:21;8.33;;;6.13;;
7211;SDS011;3647;48.792;9.802;2023-03-17T19:11:49;9.40;;;6.60;;
7211;SDS011;3647;48.792;9.802;2023-03-17T19:14:16;10.00;;;5.90;;
7211;SDS011;3647;48.792;9.802;2023-03-17T19:16:44;9.53;;;7.73;;
7211;SDS011;3647;48.792;9.802;2023-03-17T19:19:11;11.20;;;7.57;;
7211;SDS011;3647;48.792;9.802;2023-03-17T19:21:38;12.07;;;7.10;;
7211;SDS011;3647;48.792;9.802;2023-03-17T19:24:05;9.53;;;6.83;;
7211;SDS011;3647;48.792;9.802;2023-03-17T19:26:32;11.20;;;6.77;;
7211;SDS011;3647;48.792;9.802;2023-03-17T19:29:01;9.50;;;7.23;;
7211;SDS011;3647;48.792;9.802;2023-03-17T19:31:27;9.30;;;7.00;;
7211;SDS011;3647;48.792;9.802;2023-03-17T19:33:54;10.27;;;7.20;;
7211;SDS011;3647;48.792;9.802;2023-03-17T19:36:21;11.93;;;7.50;;
7211;SDS011;3647;48.792;9.802;2023-03-17T19:38:48;12.50;;;8.73;;
7211;SDS011;3647;48.792;9.802;2023-03-17T19:41:15;11.27;;;7.70;;
7211;SDS011;3647;48.792;9.802;2023-03-17T19:43:42;10.27;;;7.87;;
7211;SDS011;3647;48.792;9.802;2023-03-17T19:46:10;10.20;;;7.73;;
7211;SDS011;3647;48.792;9.802;2023-03-17T19:48:37;13.17;;;7.93;;
7211;SDS011;3647;48.792;9.802;2023-03-17T19:51:04;11.43;;;7.73;;
7211;SDS011;3647;48.792;9.802;2023-03-17T19:53:32;11.33;;;8.30;;
7211;SDS011;3647;48.792;9.802;2023-03-17T19:55:59;13.43;;;8.60;;
7211;SDS011;3647;48.792;9.802;2023-03-17T19:58:25;10.27;;;7.67;;
7211;SDS011;3647;48.792;9.802;2023-03-17T20:00:52;13.70;;;8.93;;
7211;SDS011;3647;48.792;9.802;2023-03-17T20:03:20;13.67;;;8.33;;
7211;SDS011;3647;48.792;9.802;2023-03-17T20:05:50;12.93;;;7.60;;
7211;SDS011;3647;48.792;9.802;2023-03-17T20:08:17;12.20;;;8.53;;
7211;SDS011;3647;48.792;9.802;2023-03-17T20:10:48;11.87;;;8.13;;
7211;SDS011;3647;48.792;9.802;2023-03-17T20:13:17;11.13;;;7.67;;
7211;SDS011;3647;48.792;9.802;2023-03-17T20:15:45;12.37;;;8.43;;
7211;SDS011;3647;48.792;9.802;2023-03-17T20:18:12;15.13;;;8.47;;
7211;SDS011;3647;48.792;9.802;2023-03-17T20:20:42;11.60;;;8.63;;
7211;SDS011;3647;48.792;9.802;2023-03-17T20:23:11;18.47;;;12.27;;
7211;SDS011;3647;48.792;9.802;2023-03-17T20:25:39;23.93;;;16.67;;
7211;SDS011;3647;48.792;9.802;2023-03-17T20:28:07;16.87;;;11.00;;
7211;SDS011;3647;48.792;9.802;2023-03-17T20:30:34;15.50;;;12.17;;
7211;SDS011;3647;48.792;9.802;2023-03-17T20:33:01;16.40;;;11.57;;
7211;SDS011;3647;48.792;9.802;2023-03-17T20:35:28;12.43;;;9.10;;
7211;SDS011;3647;48.792;9.802;2023-03-17T20:37:56;15.13;;;9.87;;
7211;SDS011;3647;48.792;9.802;2023-03-17T20:40:23;12.20;;;8.73;;
7211;SDS011;3647;48.792;9.802;2023-03-17T20:42:50;14.97;;;10.83;;
7211;SDS011;3647;48.792;9.802;2023-03-17T20:45:18;17.97;;;12.80;;
7211;SDS011;3647;48.792;9.802;2023-03-17T20:47:45;19.43;;;12.50;;
7211;SDS011;3647;48.792;9.802;2023-03-17T20:50:12;16.83;;;11.50;;
7211;SDS011;3647;48.792;9.802;2023-03-17T20:52:39;16.07;;;9.87;;
7211;SDS011;3647;48.792;9.802;2023-03-17T20:55:07;14.90;;;8.50;;
7211;SDS011;3647;48.792;9.802;2023-03-17T20:57:38;12.83;;;9.20;;
7211;SDS011;3647;48.792;9.802;2023-03-17T21:00:06;11.97;;;8.20;;
7211;SDS011;3647;48.792;9.802;2023-03-17T21:02:34;13.00;;;9.17;;
7211;SDS011;3647;48.792;9.802;2023-03-17T21:05:01;13.57;;;7.83;;
7211;SDS011;3647;48.792;9.802;2023-03-17T21:07:28;13.43;;;8.97;;
7211;SDS011;3647;48.792;9.802;2023-03-17T21:09:55;13.27;;;8.70;;
7211;SDS011;3647;48.792;9.802;2023-03-17T21:12:24;11.23;;;8.83;;
7211;SDS011;3647;48.792;9.802;2023-03-17T21:14:51;16.67;;;9.37;;
7211;SDS011;3647;48.792;9.802;2023-03-17T21:17:18;11.40;;;9.50;;
7211;SDS011;3647;48.792;9.802;2023-03-17T21:19:46;10.83;;;8.37;;
7211;SDS011;3647;48.792;9.802;2023-03-17T21:22:13;14.73;;;10.53;;
7211;SDS011;3647;48.792;9.802;2023-03-17T21:24:40;18.20;;;10.87;;
7211;SDS011;3647;48.792;9.802;2023-03-17T21:27:07;13.57;;;8.63;;
7211;SDS011;3647;48.792;9.802;2023-03-17T21:29:36;13.83;;;8.47;;
7211;SDS011;3647;48.792;9.802;2023-03-17T21:32:04;16.50;;;10.30;;
7211;SDS011;3647;48.792;9.802;2023-03-17T21:34:32;16.13;;;9.93;;
7211;SDS011;3647;48.792;9.802;2023-03-17T21:36:59;13.00;;;9.50;;
7211;SDS011;3647;48.792;9.802;2023-03-17T21:39:26;13.73;;;9.50;;
7211;SDS011;3647;48.792;9.802;2023-03-17T21:41:53;15.80;;;9.23;;
7211;SDS011;3647;48.792;9.802;2023-03-17T21:44:20;13.53;;;9.80;;
7211;SDS011;3647;48.792;9.802;2023-03-17T21:46:49;10.57;;;9.03;;
7211;SDS011;3647;48.792;9.802;2023-03-17T21:49:16;17.10;;;10.50;;
7211;SDS011;3647;48.792;9.802;2023-03-17T21:51:43;15.30;;;10.53;;
7211;SDS011;3647;48.792;9.802;2023-03-17T21:54:11;34.53;;;19.90;;
7211;SDS011;3647;48.792;9.802;2023-03-17T21:56:38;35.93;;;19.07;;
7211;SDS011;3647;48.792;9.802;2023-03-17T21:59:05;30.60;;;19.83;;
7211;SDS011;3647;48.792;9.802;2023-03-17T22:01:34;29.57;;;16.93;;
7211;SDS011;3647;48.792;9.802;2023-03-17T22:04:03;25.43;;;15.83;;
7211;SDS011;3647;48.792;9.802;2023-03-17T22:06:30;19.50;;;11.90;;
7211;SDS011;3647;48.792;9.802;2023-03-17T22:08:56;16.70;;;11.23;;
7211;SDS011;3647;48.792;9.802;2023-03-17T22:11:23;16.80;;;11.07;;
7211;SDS011;3647;48.792;9.802;2023-03-17T22:13:50;18.20;;;11.83;;